sensor_id;sensor_type;location;lat;lon;timestamp;P1;durP1;ratioP1;P2;durP2;ratioP2
40314;SDS011;26021;45.640;11.302;2023-07-29T00:00:32;8.73;;;5.10;;
40314;SDS011;26021;45.640;11.302;2023-07-29T00:02:57;6.47;;;5.20;;
40314;SDS011;26021;45.640;11.302;2023-07-29T00:05:23;7.70;;;5.40;;
40314;SDS011;26021;45.640;11.302;2023-07-29T00:07:48;7.53;;;5.07;;
40314;SDS011;26021;45.640;11.302;2023-07-29T00:10:14;7.65;;;4.95;;
40314;SDS011;26021;45.640;11.302;2023-07-29T00:12:39;5.63;;;4.90;;
40314;SDS011;26021;45.640;11.302;2023-07-29T00:15:05;8.18;;;5.60;;
40314;SDS011;26021;45.640;11.302;2023-07-29T00:17:30;6.93;;;4.78;;
40314;SDS011;26021;45.640;11.302;2023-07-29T00:19:56;8.88;;;5.38;;
40314;SDS011;26021;45.640;11.302;2023-07-29T00:22:21;5.28;;;4.82;;
40314;SDS011;26021;45.640;11.302;2023-07-29T00:24:51;6.57;;;4.60;;
40314;SDS011;26021;45.640;11.302;2023-07-29T00:27:18;6.15;;;5.00;;
40314;SDS011;26021;45.640;11.302;2023-07-29T00:29:44;5.78;;;4.82;;
40314;SDS011;26021;45.640;11.302;2023-07-29T00:32:09;5.95;;;4.85;;
40314;SDS011;26021;45.640;11.302;2023-07-29T00:34:34;5.72;;;4.90;;
40314;SDS011;26021;45.640;11.302;2023-07-29T00:37:00;6.43;;;5.03;;
40314;SDS011;26021;45.640;11.302;2023-07-29T00:39:25;9.73;;;4.90;;
40314;SDS011;26021;45.640;11.302;2023-07-29T00:41:51;6.85;;;4.82;;
40314;SDS011;26021;45.640;11.302;2023-07-29T00:44:16;7.53;;;5.13;;
40314;SDS011;26021;45.640;11.302;2023-07-29T00:46:41;8.27;;;5.85;;
40314;SDS011;26021;45.640;11.302;2023-07-29T00:49:10;7.13;;;5.18;;
40314;SDS011;26021;45.640;11.302;2023-07-29T00:51:35;5.22;;;4.55;;
40314;SDS011;26021;45.640;11.302;2023-07-29T00:54:01;8.55;;;4.85;;
40314;SDS011;26021;45.640;11.302;2023-07-29T00:56:27;6.55;;;4.90;;
40314;SDS011;26021;45.640;11.302;2023-07-29T00:58:52;7.25;;;5.07;;
40314;SDS011;26021;45.640;11.302;2023-07-29T01:01:23;7.25;;;5.13;;
40314;SDS011;26021;45.640;11.302;2023-07-29T01:03:49;8.25;;;5.18;;
40314;SDS011;26021;45.640;11.302;2023-07-29T01:09:25;7.38;;;5.30;;
40314;SDS011;26021;45.640;11.302;2023-07-29T01:12:13;6.43;;;5.57;;
40314;SDS011;26021;45.640;11.302;2023-07-29T01:17:19;11.98;;;5.85;;
40314;SDS011;26021;45.640;11.302;2023-07-29T01:22:33;5.85;;;5.30;;
40314;SDS011;26021;45.640;11.302;2023-07-29T01:24:59;8.25;;;5.82;;
40314;SDS011;26021;45.640;11.302;2023-07-29T01:27:25;7.72;;;5.05;;
40314;SDS011;26021;45.640;11.302;2023-07-29T01:29:51;7.20;;;5.63;;
40314;SDS011;26021;45.640;11.302;2023-07-29T01:32:19;6.28;;;4.90;;
40314;SDS011;26021;45.640;11.302;2023-07-29T01:34:56;8.83;;;4.70;;
40314;SDS011;26021;45.640;11.302;2023-07-29T01:37:47;7.73;;;5.13;;
40314;SDS011;26021;45.640;11.302;2023-07-29T01:40:14;6.40;;;5.20;;
40314;SDS011;26021;45.640;11.302;2023-07-29T01:42:40;6.43;;;4.72;;
40314;SDS011;26021;45.640;11.302;2023-07-29T01:45:06;6.55;;;4.80;;
40314;SDS011;26021;45.640;11.302;2023-07-29T01:47:32;9.50;;;5.15;;
40314;SDS011;26021;45.640;11.302;2023-07-29T01:49:57;5.32;;;4.82;;
40314;SDS011;26021;45.640;11.302;2023-07-29T01:52:23;7.10;;;5.00;;
40314;SDS011;26021;45.640;11.302;2023-07-29T01:54:48;5.82;;;5.07;;
40314;SDS011;26021;45.640;11.302;2023-07-29T01:57:13;7.20;;;5.25;;
40314;SDS011;26021;45.640;11.302;2023-07-29T01:59:39;5.78;;;5.20;;
40314;SDS011;26021;45.640;11.302;2023-07-29T02:02:04;7.30;;;5.40;;
40314;SDS011;26021;45.640;11.302;2023-07-29T02:04:30;5.60;;;4.97;;
40314;SDS011;26021;45.640;11.302;2023-07-29T02:06:55;7.82;;;5.13;;
40314;SDS011;26021;45.640;11.302;2023-07-29T02:09:21;7.75;;;5.13;;
40314;SDS011;26021;45.640;11.302;2023-07-29T02:11:46;7.97;;;5.35;;
40314;SDS011;26021;45.640;11.302;2023-07-29T02:14:12;7.35;;;5.50;;
40314;SDS011;26021;45.640;11.302;2023-07-29T02:16:37;8.05;;;5.00;;
40314;SDS011;26021;45.640;11.302;2023-07-29T02:19:04;7.70;;;5.00;;
40314;SDS011;26021;45.640;11.302;2023-07-29T02:21:29;6.60;;;5.47;;
40314;SDS011;26021;45.640;11.302;2023-07-29T02:23:54;6.28;;;5.22;;
40314;SDS011;26021;45.640;11.302;2023-07-29T02:26:20;6.97;;;4.75;;
40314;SDS011;26021;45.640;11.302;2023-07-29T02:28:45;5.95;;;5.15;;
40314;SDS011;26021;45.640;11.302;2023-07-29T02:31:15;7.00;;;5.22;;
40314;SDS011;26021;45.640;11.302;2023-07-29T02:33:48;8.07;;;5.28;;
40314;SDS011;26021;45.640;11.302;2023-07-29T02:36:14;7.72;;;5.43;;
40314;SDS011;26021;45.640;11.302;2023-07-29T02:38:40;7.13;;;5.90;;
40314;SDS011;26021;45.640;11.302;2023-07-29T02:41:06;7.03;;;5.72;;
40314;SDS011;26021;45.640;11.302;2023-07-29T02:43:34;6.10;;;5.50;;
40314;SDS011;26021;45.640;11.302;2023-07-29T02:45:59;5.38;;;4.88;;
40314;SDS011;26021;45.640;11.302;2023-07-29T02:48:25;8.00;;;5.47;;
40314;SDS011;26021;45.640;11.302;2023-07-29T02:50:50;5.28;;;4.78;;
40314;SDS011;26021;45.640;11.302;2023-07-29T02:53:16;6.40;;;5.13;;
40314;SDS011;26021;45.640;11.302;2023-07-29T02:55:42;5.97;;;4.88;;
40314;SDS011;26021;45.640;11.302;2023-07-29T02:58:07;8.02;;;5.45;;
40314;SDS011;26021;45.640;11.302;2023-07-29T03:00:33;5.70;;;4.97;;
40314;SDS011;26021;45.640;11.302;2023-07-29T03:02:59;5.88;;;5.07;;
40314;SDS011;26021;45.640;11.302;2023-07-29T03:05:26;6.70;;;5.07;;
40314;SDS011;26021;45.640;11.302;2023-07-29T03:07:52;5.88;;;5.15;;
40314;SDS011;26021;45.640;11.302;2023-07-29T03:10:18;6.45;;;5.25;;
40314;SDS011;26021;45.640;11.302;2023-07-29T03:12:43;6.32;;;5.00;;
40314;SDS011;26021;45.640;11.302;2023-07-29T03:15:09;7.38;;;5.15;;
40314;SDS011;26021;45.640;11.302;2023-07-29T03:17:34;7.53;;;5.38;;
40314;SDS011;26021;45.640;11.302;2023-07-29T03:20:00;5.47;;;4.97;;
40314;SDS011;26021;45.640;11.302;2023-07-29T03:22:25;6.13;;;5.53;;
40314;SDS011;26021;45.640;11.302;2023-07-29T03:24:50;6.43;;;5.15;;
40314;SDS011;26021;45.640;11.302;2023-07-29T03:27:16;10.23;;;5.35;;
40314;SDS011;26021;45.640;11.302;2023-07-29T03:29:41;5.43;;;4.90;;
40314;SDS011;26021;45.640;11.302;2023-07-29T03:32:07;7.78;;;5.68;;
40314;SDS011;26021;45.640;11.302;2023-07-29T03:34:32;7.05;;;5.32;;
40314;SDS011;26021;45.640;11.302;2023-07-29T03:36:58;8.30;;;5.50;;
40314;SDS011;26021;45.640;11.302;2023-07-29T03:39:24;9.15;;;5.40;;
40314;SDS011;26021;45.640;11.302;2023-07-29T03:41:49;7.47;;;5.50;;
40314;SDS011;26021;45.640;11.302;2023-07-29T03:44:15;8.15;;;5.30;;
40314;SDS011;26021;45.640;11.302;2023-07-29T03:46:40;8.63;;;5.60;;
40314;SDS011;26021;45.640;11.302;2023-07-29T03:49:06;8.77;;;5.65;;
40314;SDS011;26021;45.640;11.302;2023-07-29T03:51:31;5.93;;;5.32;;
40314;SDS011;26021;45.640;11.302;2023-07-29T03:53:57;6.55;;;5.78;;
40314;SDS011;26021;45.640;11.302;2023-07-29T03:56:22;6.60;;;5.35;;
40314;SDS011;26021;45.640;11.302;2023-07-29T03:58:47;7.03;;;5.70;;
40314;SDS011;26021;45.640;11.302;2023-07-29T04:01:14;8.68;;;5.68;;
40314;SDS011;26021;45.640;11.302;2023-07-29T04:03:40;7.00;;;4.80;;
40314;SDS011;26021;45.640;11.302;2023-07-29T04:06:05;4.90;;;4.40;;
40314;SDS011;26021;45.640;11.302;2023-07-29T04:08:30;5.05;;;4.45;;
40314;SDS011;26021;45.640;11.302;2023-07-29T04:10:56;7.05;;;5.00;;
40314;SDS011;26021;45.640;11.302;2023-07-29T04:13:22;7.35;;;4.80;;
40314;SDS011;26021;45.640;11.302;2023-07-29T04:15:48;7.65;;;5.20;;
40314;SDS011;26021;45.640;11.302;2023-07-29T04:18:13;8.93;;;4.97;;
40314;SDS011;26021;45.640;11.302;2023-07-29T04:20:39;5.97;;;4.88;;
40314;SDS011;26021;45.640;11.302;2023-07-29T04:23:04;6.95;;;5.18;;
40314;SDS011;26021;45.640;11.302;2023-07-29T04:25:31;7.53;;;4.80;;
40314;SDS011;26021;45.640;11.302;2023-07-29T04:27:56;6.22;;;4.53;;
40314;SDS011;26021;45.640;11.302;2023-07-29T04:30:23;6.43;;;5.20;;
40314;SDS011;26021;45.640;11.302;2023-07-29T04:32:48;5.05;;;4.63;;
40314;SDS011;26021;45.640;11.302;2023-07-29T04:35:15;5.65;;;5.15;;
40314;SDS011;26021;45.640;11.302;2023-07-29T04:37:40;6.03;;;4.68;;
40314;SDS011;26021;45.640;11.302;2023-07-29T04:40:06;6.72;;;5.15;;
40314;SDS011;26021;45.640;11.302;2023-07-29T04:42:32;5.32;;;4.82;;
40314;SDS011;26021;45.640;11.302;2023-07-29T04:44:57;7.78;;;5.22;;
40314;SDS011;26021;45.640;11.302;2023-07-29T04:47:23;11.07;;;5.40;;
40314;SDS011;26021;45.640;11.302;2023-07-29T04:49:48;5.68;;;4.90;;
40314;SDS011;26021;45.640;11.302;2023-07-29T04:52:14;8.20;;;5.10;;
40314;SDS011;26021;45.640;11.302;2023-07-29T04:54:40;6.85;;;5.15;;
40314;SDS011;26021;45.640;11.302;2023-07-29T04:57:06;7.65;;;4.97;;
40314;SDS011;26021;45.640;11.302;2023-07-29T04:59:31;7.32;;;5.10;;
40314;SDS011;26021;45.640;11.302;2023-07-29T05:01:57;6.88;;;5.13;;
40314;SDS011;26021;45.640;11.302;2023-07-29T05:04:22;6.40;;;5.20;;
40314;SDS011;26021;45.640;11.302;2023-07-29T05:06:48;6.78;;;4.90;;
40314;SDS011;26021;45.640;11.302;2023-07-29T05:09:14;9.35;;;5.35;;
40314;SDS011;26021;45.640;11.302;2023-07-29T05:11:41;5.97;;;5.38;;
40314;SDS011;26021;45.640;11.302;2023-07-29T05:14:06;9.60;;;5.22;;
40314;SDS011;26021;45.640;11.302;2023-07-29T05:16:32;7.22;;;6.55;;
40314;SDS011;26021;45.640;11.302;2023-07-29T05:18:57;6.75;;;5.43;;
40314;SDS011;26021;45.640;11.302;2023-07-29T05:21:23;6.68;;;5.30;;
40314;SDS011;26021;45.640;11.302;2023-07-29T05:23:48;6.03;;;4.70;;
40314;SDS011;26021;45.640;11.302;2023-07-29T05:26:13;5.70;;;4.55;;
40314;SDS011;26021;45.640;11.302;2023-07-29T05:28:39;7.53;;;4.75;;
40314;SDS011;26021;45.640;11.302;2023-07-29T05:31:04;7.60;;;4.85;;
40314;SDS011;26021;45.640;11.302;2023-07-29T05:33:30;5.57;;;4.70;;
40314;SDS011;26021;45.640;11.302;2023-07-29T05:35:55;7.80;;;4.75;;
40314;SDS011;26021;45.640;11.302;2023-07-29T05:38:20;8.30;;;4.85;;
40314;SDS011;26021;45.640;11.302;2023-07-29T05:40:47;6.55;;;4.65;;
40314;SDS011;26021;45.640;11.302;2023-07-29T05:43:13;5.20;;;4.70;;
40314;SDS011;26021;45.640;11.302;2023-07-29T05:45:39;5.63;;;4.53;;
40314;SDS011;26021;45.640;11.302;2023-07-29T05:48:05;6.60;;;4.55;;
40314;SDS011;26021;45.640;11.302;2023-07-29T05:50:30;8.98;;;4.65;;
40314;SDS011;26021;45.640;11.302;2023-07-29T05:52:56;6.60;;;4.28;;
40314;SDS011;26021;45.640;11.302;2023-07-29T05:55:21;6.38;;;4.15;;
40314;SDS011;26021;45.640;11.302;2023-07-29T05:57:46;5.78;;;4.47;;
40314;SDS011;26021;45.640;11.302;2023-07-29T06:00:12;5.65;;;3.95;;
40314;SDS011;26021;45.640;11.302;2023-07-29T06:02:38;6.45;;;4.20;;
40314;SDS011;26021;45.640;11.302;2023-07-29T06:05:04;8.30;;;4.40;;
40314;SDS011;26021;45.640;11.302;2023-07-29T06:07:30;5.47;;;4.57;;
40314;SDS011;26021;45.640;11.302;2023-07-29T06:09:57;12.05;;;4.20;;
40314;SDS011;26021;45.640;11.302;2023-07-29T06:12:23;7.65;;;4.00;;
40314;SDS011;26021;45.640;11.302;2023-07-29T06:14:48;8.98;;;4.75;;
40314;SDS011;26021;45.640;11.302;2023-07-29T06:17:13;7.60;;;4.15;;
40314;SDS011;26021;45.640;11.302;2023-07-29T06:19:39;7.13;;;4.07;;
40314;SDS011;26021;45.640;11.302;2023-07-29T06:22:04;7.65;;;4.47;;
40314;SDS011;26021;45.640;11.302;2023-07-29T06:24:30;7.35;;;4.30;;
40314;SDS011;26021;45.640;11.302;2023-07-29T06:26:56;8.25;;;4.35;;
40314;SDS011;26021;45.640;11.302;2023-07-29T06:29:21;7.97;;;4.65;;
40314;SDS011;26021;45.640;11.302;2023-07-29T06:31:47;6.25;;;3.95;;
40314;SDS011;26021;45.640;11.302;2023-07-29T06:34:12;4.35;;;3.70;;
40314;SDS011;26021;45.640;11.302;2023-07-29T06:36:37;6.97;;;4.40;;
40314;SDS011;26021;45.640;11.302;2023-07-29T06:39:03;5.35;;;4.18;;
40314;SDS011;26021;45.640;11.302;2023-07-29T06:41:28;5.60;;;4.43;;
40314;SDS011;26021;45.640;11.302;2023-07-29T06:43:54;8.40;;;4.38;;
40314;SDS011;26021;45.640;11.302;2023-07-29T06:46:19;7.22;;;4.45;;
40314;SDS011;26021;45.640;11.302;2023-07-29T06:48:44;4.65;;;4.07;;
40314;SDS011;26021;45.640;11.302;2023-07-29T06:51:10;4.78;;;4.28;;
40314;SDS011;26021;45.640;11.302;2023-07-29T06:53:35;6.30;;;4.47;;
40314;SDS011;26021;45.640;11.302;2023-07-29T06:56:00;9.38;;;4.70;;
40314;SDS011;26021;45.640;11.302;2023-07-29T06:58:26;6.45;;;4.15;;
40314;SDS011;26021;45.640;11.302;2023-07-29T07:00:52;4.50;;;4.10;;
40314;SDS011;26021;45.640;11.302;2023-07-29T07:03:17;5.15;;;4.22;;
40314;SDS011;26021;45.640;11.302;2023-07-29T07:05:43;9.80;;;4.50;;
40314;SDS011;26021;45.640;11.302;2023-07-29T07:08:08;8.30;;;4.28;;
40314;SDS011;26021;45.640;11.302;2023-07-29T07:10:34;6.78;;;4.15;;
40314;SDS011;26021;45.640;11.302;2023-07-29T07:12:59;4.95;;;4.22;;
40314;SDS011;26021;45.640;11.302;2023-07-29T07:15:25;6.82;;;4.50;;
40314;SDS011;26021;45.640;11.302;2023-07-29T07:17:50;7.75;;;4.60;;
40314;SDS011;26021;45.640;11.302;2023-07-29T07:20:16;11.52;;;4.22;;
40314;SDS011;26021;45.640;11.302;2023-07-29T07:22:42;7.22;;;4.00;;
40314;SDS011;26021;45.640;11.302;2023-07-29T07:25:07;6.53;;;4.30;;
40314;SDS011;26021;45.640;11.302;2023-07-29T07:27:33;7.57;;;4.90;;
40314;SDS011;26021;45.640;11.302;2023-07-29T07:29:58;4.93;;;4.15;;
40314;SDS011;26021;45.640;11.302;2023-07-29T07:32:24;5.57;;;4.10;;
40314;SDS011;26021;45.640;11.302;2023-07-29T07:34:49;7.70;;;4.13;;
40314;SDS011;26021;45.640;11.302;2023-07-29T07:37:15;8.05;;;4.22;;
40314;SDS011;26021;45.640;11.302;2023-07-29T07:39:41;6.63;;;3.97;;
40314;SDS011;26021;45.640;11.302;2023-07-29T07:42:06;5.28;;;4.28;;
40314;SDS011;26021;45.640;11.302;2023-07-29T07:44:32;7.50;;;4.32;;
40314;SDS011;26021;45.640;11.302;2023-07-29T07:46:57;5.88;;;3.55;;
40314;SDS011;26021;45.640;11.302;2023-07-29T07:49:23;5.90;;;3.95;;
40314;SDS011;26021;45.640;11.302;2023-07-29T07:51:48;6.95;;;3.85;;
40314;SDS011;26021;45.640;11.302;2023-07-29T07:54:13;6.15;;;3.92;;
40314;SDS011;26021;45.640;11.302;2023-07-29T07:56:39;6.78;;;4.32;;
40314;SDS011;26021;45.640;11.302;2023-07-29T07:59:04;8.05;;;3.95;;
40314;SDS011;26021;45.640;11.302;2023-07-29T08:01:36;6.82;;;4.10;;
40314;SDS011;26021;45.640;11.302;2023-07-29T08:04:02;9.43;;;4.47;;
40314;SDS011;26021;45.640;11.302;2023-07-29T08:06:28;7.15;;;4.97;;
40314;SDS011;26021;45.640;11.302;2023-07-29T08:08:54;8.27;;;4.82;;
40314;SDS011;26021;45.640;11.302;2023-07-29T08:11:19;9.65;;;4.10;;
40314;SDS011;26021;45.640;11.302;2023-07-29T08:13:45;8.30;;;4.13;;
40314;SDS011;26021;45.640;11.302;2023-07-29T08:16:12;6.07;;;3.60;;
40314;SDS011;26021;45.640;11.302;2023-07-29T08:18:38;9.68;;;4.55;;
40314;SDS011;26021;45.640;11.302;2023-07-29T08:21:03;5.28;;;3.53;;
40314;SDS011;26021;45.640;11.302;2023-07-29T08:23:30;6.78;;;3.80;;
40314;SDS011;26021;45.640;11.302;2023-07-29T08:25:57;5.13;;;4.10;;
40314;SDS011;26021;45.640;11.302;2023-07-29T08:31:00;6.15;;;3.90;;
40314;SDS011;26021;45.640;11.302;2023-07-29T08:33:26;6.78;;;3.03;;
40314;SDS011;26021;45.640;11.302;2023-07-29T08:35:52;7.10;;;3.53;;
40314;SDS011;26021;45.640;11.302;2023-07-29T08:38:17;7.40;;;3.70;;
40314;SDS011;26021;45.640;11.302;2023-07-29T08:43:23;8.43;;;4.45;;
40314;SDS011;26021;45.640;11.302;2023-07-29T08:45:54;7.20;;;4.03;;
40314;SDS011;26021;45.640;11.302;2023-07-29T08:48:23;9.48;;;4.05;;
40314;SDS011;26021;45.640;11.302;2023-07-29T08:51:04;7.40;;;4.15;;
40314;SDS011;26021;45.640;11.302;2023-07-29T08:53:31;7.60;;;3.80;;
40314;SDS011;26021;45.640;11.302;2023-07-29T08:55:57;5.32;;;3.38;;
40314;SDS011;26021;45.640;11.302;2023-07-29T08:58:23;3.97;;;3.58;;
40314;SDS011;26021;45.640;11.302;2023-07-29T09:00:49;5.70;;;3.63;;
40314;SDS011;26021;45.640;11.302;2023-07-29T09:03:15;7.40;;;3.92;;
40314;SDS011;26021;45.640;11.302;2023-07-29T09:05:41;8.18;;;4.30;;
40314;SDS011;26021;45.640;11.302;2023-07-29T09:08:06;6.05;;;3.97;;
40314;SDS011;26021;45.640;11.302;2023-07-29T09:10:36;5.28;;;3.80;;
40314;SDS011;26021;45.640;11.302;2023-07-29T09:13:03;8.15;;;3.80;;
40314;SDS011;26021;45.640;11.302;2023-07-29T09:15:30;4.38;;;3.70;;
40314;SDS011;26021;45.640;11.302;2023-07-29T09:17:56;7.53;;;4.07;;
40314;SDS011;26021;45.640;11.302;2023-07-29T09:20:26;6.90;;;4.25;;
40314;SDS011;26021;45.640;11.302;2023-07-29T09:22:55;5.00;;;3.38;;
40314;SDS011;26021;45.640;11.302;2023-07-29T09:25:27;7.95;;;4.60;;
40314;SDS011;26021;45.640;11.302;2023-07-29T09:28:00;4.38;;;3.83;;
40314;SDS011;26021;45.640;11.302;2023-07-29T09:30:26;6.15;;;3.80;;
40314;SDS011;26021;45.640;11.302;2023-07-29T09:32:54;7.75;;;3.97;;
40314;SDS011;26021;45.640;11.302;2023-07-29T09:35:21;11.82;;;4.20;;
40314;SDS011;26021;45.640;11.302;2023-07-29T09:37:46;6.60;;;3.90;;
40314;SDS011;26021;45.640;11.302;2023-07-29T09:40:15;6.68;;;3.67;;
40314;SDS011;26021;45.640;11.302;2023-07-29T09:42:47;7.70;;;4.45;;
40314;SDS011;26021;45.640;11.302;2023-07-29T09:45:18;7.47;;;3.95;;
40314;SDS011;26021;45.640;11.302;2023-07-29T09:47:48;11.80;;;4.85;;
40314;SDS011;26021;45.640;11.302;2023-07-29T09:50:13;4.40;;;3.92;;
40314;SDS011;26021;45.640;11.302;2023-07-29T09:52:39;4.40;;;3.67;;
40314;SDS011;26021;45.640;11.302;2023-07-29T09:55:04;6.28;;;3.83;;
40314;SDS011;26021;45.640;11.302;2023-07-29T09:57:31;8.77;;;3.92;;
40314;SDS011;26021;45.640;11.302;2023-07-29T09:59:57;6.65;;;3.90;;
40314;SDS011;26021;45.640;11.302;2023-07-29T10:02:23;7.72;;;4.10;;
40314;SDS011;26021;45.640;11.302;2023-07-29T10:04:51;10.13;;;4.63;;
40314;SDS011;26021;45.640;11.302;2023-07-29T10:07:17;4.50;;;3.80;;
40314;SDS011;26021;45.640;11.302;2023-07-29T10:09:45;6.97;;;4.13;;
40314;SDS011;26021;45.640;11.302;2023-07-29T10:12:11;6.07;;;4.10;;
40314;SDS011;26021;45.640;11.302;2023-07-29T10:14:38;6.85;;;4.13;;
40314;SDS011;26021;45.640;11.302;2023-07-29T10:17:06;6.40;;;3.88;;
40314;SDS011;26021;45.640;11.302;2023-07-29T10:19:34;10.20;;;4.43;;
40314;SDS011;26021;45.640;11.302;2023-07-29T10:22:00;6.50;;;3.90;;
40314;SDS011;26021;45.640;11.302;2023-07-29T10:24:31;5.70;;;3.80;;
40314;SDS011;26021;45.640;11.302;2023-07-29T10:26:58;6.40;;;3.80;;
40314;SDS011;26021;45.640;11.302;2023-07-29T10:29:31;5.25;;;3.90;;
40314;SDS011;26021;45.640;11.302;2023-07-29T10:32:01;7.82;;;3.97;;
40314;SDS011;26021;45.640;11.302;2023-07-29T10:34:29;5.22;;;3.63;;
40314;SDS011;26021;45.640;11.302;2023-07-29T10:36:56;4.78;;;3.90;;
40314;SDS011;26021;45.640;11.302;2023-07-29T10:39:24;5.70;;;3.85;;
40314;SDS011;26021;45.640;11.302;2023-07-29T10:49:53;7.40;;;3.95;;
40314;SDS011;26021;45.640;11.302;2023-07-29T10:55:01;7.68;;;4.28;;
40314;SDS011;26021;45.640;11.302;2023-07-29T10:57:38;9.20;;;4.10;;
40314;SDS011;26021;45.640;11.302;2023-07-29T11:00:06;6.82;;;4.38;;
40314;SDS011;26021;45.640;11.302;2023-07-29T11:02:34;6.55;;;4.10;;
40314;SDS011;26021;45.640;11.302;2023-07-29T11:05:17;5.32;;;4.22;;
40314;SDS011;26021;45.640;11.302;2023-07-29T11:07:44;7.65;;;4.07;;
40314;SDS011;26021;45.640;11.302;2023-07-29T11:10:10;6.80;;;4.03;;
40314;SDS011;26021;45.640;11.302;2023-07-29T11:17:43;6.22;;;4.68;;
40314;SDS011;26021;45.640;11.302;2023-07-29T11:20:13;6.65;;;4.25;;
40314;SDS011;26021;45.640;11.302;2023-07-29T11:22:39;7.95;;;4.85;;
40314;SDS011;26021;45.640;11.302;2023-07-29T11:25:06;7.30;;;4.82;;
40314;SDS011;26021;45.640;11.302;2023-07-29T11:27:33;7.53;;;4.13;;
40314;SDS011;26021;45.640;11.302;2023-07-29T11:29:59;5.60;;;4.50;;
40314;SDS011;26021;45.640;11.302;2023-07-29T11:32:26;7.75;;;4.68;;
40314;SDS011;26021;45.640;11.302;2023-07-29T11:34:52;6.40;;;4.32;;
40314;SDS011;26021;45.640;11.302;2023-07-29T11:37:17;7.13;;;5.07;;
40314;SDS011;26021;45.640;11.302;2023-07-29T11:39:43;6.35;;;4.50;;
40314;SDS011;26021;45.640;11.302;2023-07-29T11:42:13;6.82;;;4.28;;
40314;SDS011;26021;45.640;11.302;2023-07-29T11:44:39;5.32;;;4.35;;
40314;SDS011;26021;45.640;11.302;2023-07-29T11:47:08;4.90;;;4.38;;
40314;SDS011;26021;45.640;11.302;2023-07-29T11:49:35;8.00;;;4.68;;
40314;SDS011;26021;45.640;11.302;2023-07-29T11:52:03;9.15;;;5.25;;
40314;SDS011;26021;45.640;11.302;2023-07-29T11:54:28;6.18;;;3.92;;
40314;SDS011;26021;45.640;11.302;2023-07-29T11:56:55;8.18;;;5.03;;
40314;SDS011;26021;45.640;11.302;2023-07-29T11:59:20;12.82;;;6.03;;
40314;SDS011;26021;45.640;11.302;2023-07-29T12:01:46;8.13;;;5.13;;
40314;SDS011;26021;45.640;11.302;2023-07-29T12:04:12;5.68;;;4.65;;
40314;SDS011;26021;45.640;11.302;2023-07-29T12:06:38;8.35;;;5.22;;
40314;SDS011;26021;45.640;11.302;2023-07-29T12:09:04;6.45;;;4.85;;
40314;SDS011;26021;45.640;11.302;2023-07-29T12:11:30;8.18;;;4.50;;
40314;SDS011;26021;45.640;11.302;2023-07-29T12:13:55;9.65;;;5.90;;
40314;SDS011;26021;45.640;11.302;2023-07-29T12:16:21;9.07;;;5.35;;
40314;SDS011;26021;45.640;11.302;2023-07-29T12:18:46;8.45;;;5.65;;
40314;SDS011;26021;45.640;11.302;2023-07-29T12:21:14;10.73;;;5.88;;
40314;SDS011;26021;45.640;11.302;2023-07-29T12:23:39;6.80;;;5.55;;
40314;SDS011;26021;45.640;11.302;2023-07-29T12:26:05;6.78;;;5.50;;
40314;SDS011;26021;45.640;11.302;2023-07-29T12:28:30;7.57;;;5.40;;
40314;SDS011;26021;45.640;11.302;2023-07-29T12:30:56;5.93;;;5.07;;
40314;SDS011;26021;45.640;11.302;2023-07-29T12:33:40;9.55;;;5.20;;
40314;SDS011;26021;45.640;11.302;2023-07-29T12:36:07;9.43;;;5.30;;
40314;SDS011;26021;45.640;11.302;2023-07-29T12:38:32;6.55;;;5.50;;
40314;SDS011;26021;45.640;11.302;2023-07-29T12:40:58;6.68;;;5.20;;
40314;SDS011;26021;45.640;11.302;2023-07-29T12:43:24;12.32;;;5.35;;
40314;SDS011;26021;45.640;11.302;2023-07-29T12:45:50;8.18;;;5.38;;
40314;SDS011;26021;45.640;11.302;2023-07-29T12:48:15;6.90;;;5.40;;
40314;SDS011;26021;45.640;11.302;2023-07-29T12:50:41;8.18;;;5.78;;
40314;SDS011;26021;45.640;11.302;2023-07-29T12:53:07;9.57;;;5.63;;
40314;SDS011;26021;45.640;11.302;2023-07-29T12:55:33;6.05;;;5.45;;
40314;SDS011;26021;45.640;11.302;2023-07-29T12:57:59;9.15;;;5.43;;
40314;SDS011;26021;45.640;11.302;2023-07-29T13:00:24;11.60;;;5.90;;
40314;SDS011;26021;45.640;11.302;2023-07-29T13:02:50;9.38;;;5.82;;
40314;SDS011;26021;45.640;11.302;2023-07-29T13:05:16;8.55;;;5.80;;
40314;SDS011;26021;45.640;11.302;2023-07-29T13:07:42;6.60;;;5.55;;
40314;SDS011;26021;45.640;11.302;2023-07-29T13:10:09;6.43;;;5.05;;
40314;SDS011;26021;45.640;11.302;2023-07-29T13:12:35;7.93;;;5.10;;
40314;SDS011;26021;45.640;11.302;2023-07-29T13:15:00;7.35;;;5.40;;
40314;SDS011;26021;45.640;11.302;2023-07-29T13:17:26;8.00;;;5.68;;
40314;SDS011;26021;45.640;11.302;2023-07-29T13:19:52;7.05;;;5.03;;
40314;SDS011;26021;45.640;11.302;2023-07-29T13:22:17;9.70;;;5.70;;
40314;SDS011;26021;45.640;11.302;2023-07-29T13:24:44;8.07;;;5.60;;
40314;SDS011;26021;45.640;11.302;2023-07-29T13:27:09;9.35;;;5.40;;
40314;SDS011;26021;45.640;11.302;2023-07-29T13:29:35;10.32;;;5.93;;
40314;SDS011;26021;45.640;11.302;2023-07-29T13:32:00;14.27;;;6.63;;
40314;SDS011;26021;45.640;11.302;2023-07-29T13:34:26;10.93;;;5.97;;
40314;SDS011;26021;45.640;11.302;2023-07-29T13:36:51;9.57;;;6.07;;
40314;SDS011;26021;45.640;11.302;2023-07-29T13:39:17;7.38;;;5.38;;
40314;SDS011;26021;45.640;11.302;2023-07-29T13:41:42;7.78;;;4.80;;
40314;SDS011;26021;45.640;11.302;2023-07-29T13:44:07;8.80;;;5.25;;
40314;SDS011;26021;45.640;11.302;2023-07-29T13:46:33;6.70;;;5.35;;
40314;SDS011;26021;45.640;11.302;2023-07-29T13:48:58;9.27;;;5.38;;
40314;SDS011;26021;45.640;11.302;2023-07-29T13:51:24;6.50;;;5.38;;
40314;SDS011;26021;45.640;11.302;2023-07-29T13:53:49;6.50;;;5.80;;
40314;SDS011;26021;45.640;11.302;2023-07-29T13:56:15;10.40;;;5.20;;
40314;SDS011;26021;45.640;11.302;2023-07-29T13:58:40;9.73;;;5.97;;
40314;SDS011;26021;45.640;11.302;2023-07-29T14:01:05;7.68;;;5.82;;
40314;SDS011;26021;45.640;11.302;2023-07-29T14:03:31;10.38;;;6.68;;
40314;SDS011;26021;45.640;11.302;2023-07-29T14:05:56;7.10;;;5.20;;
40314;SDS011;26021;45.640;11.302;2023-07-29T14:08:22;10.35;;;6.35;;
40314;SDS011;26021;45.640;11.302;2023-07-29T14:10:51;10.98;;;5.88;;
40314;SDS011;26021;45.640;11.302;2023-07-29T14:13:16;7.78;;;5.90;;
40314;SDS011;26021;45.640;11.302;2023-07-29T14:15:41;7.72;;;5.47;;
40314;SDS011;26021;45.640;11.302;2023-07-29T14:18:07;7.70;;;5.40;;
40314;SDS011;26021;45.640;11.302;2023-07-29T14:20:33;8.93;;;5.70;;
40314;SDS011;26021;45.640;11.302;2023-07-29T14:22:58;7.90;;;5.63;;
40314;SDS011;26021;45.640;11.302;2023-07-29T14:25:24;8.02;;;5.53;;
40314;SDS011;26021;45.640;11.302;2023-07-29T14:27:50;9.85;;;5.68;;
40314;SDS011;26021;45.640;11.302;2023-07-29T14:30:15;9.50;;;5.47;;
40314;SDS011;26021;45.640;11.302;2023-07-29T14:32:41;10.70;;;6.55;;
40314;SDS011;26021;45.640;11.302;2023-07-29T14:35:06;8.23;;;5.32;;
40314;SDS011;26021;45.640;11.302;2023-07-29T14:37:33;7.75;;;5.65;;
40314;SDS011;26021;45.640;11.302;2023-07-29T14:39:58;7.65;;;6.10;;
40314;SDS011;26021;45.640;11.302;2023-07-29T14:42:24;7.53;;;5.72;;
40314;SDS011;26021;45.640;11.302;2023-07-29T14:44:50;14.98;;;6.15;;
40314;SDS011;26021;45.640;11.302;2023-07-29T14:47:15;7.63;;;5.30;;
40314;SDS011;26021;45.640;11.302;2023-07-29T14:49:41;7.35;;;5.45;;
40314;SDS011;26021;45.640;11.302;2023-07-29T14:52:06;7.40;;;5.47;;
40314;SDS011;26021;45.640;11.302;2023-07-29T14:54:32;9.32;;;7.05;;
40314;SDS011;26021;45.640;11.302;2023-07-29T14:56:57;9.77;;;6.55;;